CYMH

Details ICAO CYMH (YMH)
Name Marys Harbour
Region Canada
Timezone America/St_Johns (UTC-2.5)
Plans Departing 10
Arriving 11
Stats Elevation 38 ft / 12 m (AMSL)
Location 52.302250° -55.845423°
Runways 1
Magnetic Variation 20.210° W
Sunrise 2018-05-24 07:37:17 UTC / 2018-05-24 05:07:17 Local
Sunset 2018-05-24 23:46:03 UTC / 2018-05-24 21:16:03 Local
Advertisement - Login to hide

Runways

ID Width Length Bearing (true) Bearing (mag) Surface Threshold Offset Overrun Length
11 98 ft / 30 m 2,549 ft / 777 m 85.00° 105.21° Gravel 0 ft / 0 m 0 ft / 0 m
29 98 ft / 30 m 2,549 ft / 777 m 265.01° 285.22° Gravel 0 ft / 0 m 0 ft / 0 m

Map

Weather


0- 5 10 15 20 25 30 35+ Temperature / ° C

Clouds and Precipitation
Forecast for 2018-05-24 06:00 UTC. Updated 3 hours ago

Ground ~20,000 ft ~40,000 ft Winds

METAR

CYMH 240800Z AUTO 36006KT 9SM FEW200 M03/M05 A2997 RMK SLP151

TAF

TAF CYMH 240838Z 2409/2421 36008KT P6SM BKN200 BECMG 2411/2413 01010G20KT FM241700 01012G22KT P6SM BKN030 RMK FCST BASED ON AUTO OBS. NXT FCST BY 241400Z

Frequencies

Recorded 122.55 MHz Marys Harbour AWOS
Unicom 122.80 MHz Marys Harbour Traffic Multicom
Warning: Do not use this data for real-world aviation or navigation. No guarantee of current accuracy is given.